<?xml version='1.0' encoding='utf-8'?>
<gpx xmlns="http://www.topografix.com/GPX/1/1" creator="HOLUX ezTour Plus" version="1.1">
<metadata>
<link href="http://www.holux.com"><text>HOLUX Technology, Inc.</text></link>
<time>2012-08-01T18:46:49Z</time></metadata>
<trk>
<name>raw3</name>
<trkseg>
<trkpt lat="64.309806824" lon="-20.305309296">
<ele>100.5</ele>
<time>2012-07-20T10:19:04Z</time>
<speed>0.160000</speed>
<extensions>
<speed>0.2</speed>
<temp>0.00</temp>
<bpm>0</bpm>
<rpm>0.00</rpm>
</extensions>
</trkpt>
<trkpt lat="64.309295654" lon="-20.304649353">
<ele>99.4</ele>
<time>2012-07-20T10:39:29Z</time>
<speed>3.850000</speed>
<extensions>
<speed>3.8</speed>
<temp>0.00</temp>
<bpm>0</bpm>
<rpm>0.00</rpm>
</extensions>
</trkpt>
<trkpt lat="64.309722900" lon="-20.302627563">
<ele>104.5</ele>
<time>2012-07-20T10:39:59Z</time>
<speed>3.680000</speed>
<extensions>
<speed>3.7</speed>
<temp>0.00</temp>
<bpm>0</bpm>
<rpm>0.00</rpm>
</extensions>
</trkpt>
<trkpt lat="64.310470581" lon="-20.300287247">
<ele>104.9</ele>
<time>2012-07-20T10:40:39Z</time>
<speed>3.590000</speed>
<extensions>
<speed>3.6</speed>
<temp>0.00</temp>
<bpm>0</bpm>
<rpm>0.00</rpm>
</extensions>
</trkpt>
<trkpt lat="64.311676025" lon="-20.297874451">
<ele>107.9</ele>
<time>2012-07-20T10:41:24Z</time>
<speed>4.070000</speed>
<extensions>
<speed>4.1</speed>
<temp>0.00</temp>
<bpm>0</bpm>
<rpm>0.00</rpm>
</extensions>
</trkpt>
<trkpt lat="64.312225342" lon="-20.295490265">
<ele>107.2</ele>
<time>2012-07-20T10:41:54Z</time>
<speed>5.000000</speed>
<extensions>
<speed>5.0</speed>
<temp>0.00</temp>
<bpm>0</bpm>
<rpm>0.00</rpm>
</extensions>
</trkpt>
<trkpt lat="64.314125061" lon="-20.276458740">
<ele>98.1</ele>
<time>2012-07-20T10:44:34Z</time>
<speed>8.160000</speed>
<extensions>
<speed>8.2</speed>
<temp>0.00</temp>
<bpm>0</bpm>
<rpm>0.00</rpm>
</extensions>
</trkpt>
<trkpt lat="64.314315796" lon="-20.272123337">
<ele>98.4</ele>
<time>2012-07-20T10:45:04Z</time>
<speed>6.240000</speed>
<extensions>
<speed>6.2</speed>
<temp>0.00</temp>
<bpm>0</bpm>
<rpm>0.00</rpm>
</extensions>
</trkpt>
<trkpt lat="64.314147949" lon="-20.268869400">
<ele>100.4</ele>
<time>2012-07-20T10:45:29Z</time>
<speed>6.220000</speed>
<extensions>
<speed>6.2</speed>
<temp>0.00</temp>
<bpm>0</bpm>
<rpm>0.00</rpm>
</extensions>
</trkpt>
<trkpt lat="64.313270569" lon="-20.261127472">
<ele>101.3</ele>
<time>2012-07-20T10:47:24Z</time>
<speed>5.630000</speed>
<extensions>
<speed>5.6</speed>
<temp>0.00</temp>
<bpm>0</bpm>
<rpm>0.00</rpm>
</extensions>
</trkpt>
<trkpt lat="64.311569214" lon="-20.253549576">
<ele>102.4</ele>
<time>2012-07-20T10:48:29Z</time>
<speed>6.490000</speed>
<extensions>
<speed>6.5</speed>
<temp>0.00</temp>
<bpm>0</bpm>
<rpm>0.00</rpm>
</extensions>
</trkpt>
<trkpt lat="64.310874939" lon="-20.248517990">
<ele>100.2</ele>
<time>2012-07-20T10:49:09Z</time>
<speed>6.910000</speed>
<extensions>
<speed>6.9</speed>
<temp>0.00</temp>
<bpm>0</bpm>
<rpm>0.00</rpm>
</extensions>
</trkpt>
<trkpt lat="64.307029724" lon="-20.197580338">
<ele>170.3</ele>
<time>2012-07-20T11:00:54Z</time>
<speed>3.560000</speed>
<extensions>
<speed>3.6</speed>
<temp>0.00</temp>
<bpm>0</bpm>
<rpm>0.00</rpm>
</extensions>
</trkpt>
<trkpt lat="64.305595398" lon="-20.182046890">
<ele>187.3</ele>
<time>2012-07-20T11:04:09Z</time>
<speed>3.800000</speed>
<extensions>
<speed>3.8</speed>
<temp>0.00</temp>
<bpm>0</bpm>
<rpm>0.00</rpm>
</extensions>
</trkpt>
<trkpt lat="64.305541992" lon="-20.172494888">
<ele>186.9</ele>
<time>2012-07-20T11:07:14Z</time>
<speed>6.260000</speed>
<extensions>
<speed>6.3</speed>
<temp>0.00</temp>
<bpm>0</bpm>
<rpm>0.00</rpm>
</extensions>
</trkpt>
<trkpt lat="64.305671692" lon="-20.169582367">
<ele>182.1</ele>
<time>2012-07-20T11:07:34Z</time>
<speed>8.390000</speed>
<extensions>
<speed>8.4</speed>
<temp>0.00</temp>
<bpm>0</bpm>
<rpm>0.00</rpm>
</extensions>
</trkpt>
<trkpt lat="64.306076050" lon="-20.166967392">
<ele>179.1</ele>
<time>2012-07-20T11:07:49Z</time>
<speed>8.540000</speed>
<extensions>
<speed>8.5</speed>
<temp>0.00</temp>
<bpm>0</bpm>
<rpm>0.00</rpm>
</extensions>
</trkpt>
<trkpt lat="64.306846619" lon="-20.164714813">
<ele>178.3</ele>
<time>2012-07-20T11:08:09Z</time>
<speed>6.050000</speed>
<extensions>
<speed>6.1</speed>
<temp>0.00</temp>
<bpm>0</bpm>
<rpm>0.00</rpm>
</extensions>
</trkpt>
<trkpt lat="64.315963745" lon="-20.147329330">
<ele>198.5</ele>
<time>2012-07-20T11:12:39Z</time>
<speed>3.430000</speed>
<extensions>
<speed>3.4</speed>
<temp>0.00</temp>
<bpm>0</bpm>
<rpm>0.00</rpm>
</extensions>
</trkpt>
<trkpt lat="64.318016052" lon="-20.139417648">
<ele>201.6</ele>
<time>2012-07-20T11:14:29Z</time>
<speed>5.270000</speed>
<extensions>
<speed>5.3</speed>
<temp>0.00</temp>
<bpm>0</bpm>
<rpm>0.00</rpm>
</extensions>
</trkpt>
<trkpt lat="64.319122314" lon="-20.137537003">
<ele>203.8</ele>
<time>2012-07-20T11:14:54Z</time>
<speed>5.210000</speed>
<extensions>
<speed>5.2</speed>
<temp>0.00</temp>
<bpm>0</bpm>
<rpm>0.00</rpm>
</extensions>
</trkpt>
<trkpt lat="64.320434570" lon="-20.134639740">
<ele>207.0</ele>
<time>2012-07-20T11:16:29Z</time>
<speed>0.020000</speed>
<extensions>
<speed>0.0</speed>
<temp>0.00</temp>
<bpm>0</bpm>
<rpm>0.00</rpm>
</extensions>
</trkpt>
<trkpt lat="64.322723389" lon="-20.134403229">
<ele>215.5</ele>
<time>2012-07-20T11:17:44Z</time>
<speed>4.010000</speed>
<extensions>
<speed>4.0</speed>
<temp>0.00</temp>
<bpm>0</bpm>
<rpm>0.00</rpm>
</extensions>
</trkpt>
<trkpt lat="64.324684143" lon="-20.132675171">
<ele>216.0</ele>
<time>2012-07-20T11:18:39Z</time>
<speed>4.050000</speed>
<extensions>
<speed>4.0</speed>
<temp>0.00</temp>
<bpm>0</bpm>
<rpm>0.00</rpm>
</extensions>
</trkpt>
<trkpt lat="64.325134277" lon="-20.130146027">
<ele>216.2</ele>
<time>2012-07-20T11:19:14Z</time>
<speed>3.640000</speed>
<extensions>
<speed>3.6</speed>
<temp>0.00</temp>
<bpm>0</bpm>
<rpm>0.00</rpm>
</extensions>
</trkpt>
<trkpt lat="64.325347900" lon="-20.129682541">
<ele>216.7</ele>
<time>2012-07-20T11:19:24Z</time>
<speed>2.530000</speed>
<extensions>
<speed>2.5</speed>
<temp>0.00</temp>
<bpm>0</bpm>
<rpm>0.00</rpm>
</extensions>
</trkpt>
<trkpt lat="64.325325012" lon="-20.129121780">
<ele>216.7</ele>
<time>2012-07-20T13:06:14Z</time>
<speed>0.040000</speed>
<extensions>
<speed>0.0</speed>
<temp>0.00</temp>
<bpm>0</bpm>
<rpm>0.00</rpm>
</extensions>
</trkpt>
<trkpt lat="64.325958252" lon="-20.131097794">
<ele>216.6</ele>
<time>2012-07-20T13:38:44Z</time>
<speed>2.710000</speed>
<extensions>
<speed>2.7</speed>
<temp>0.00</temp>
<bpm>0</bpm>
<rpm>0.00</rpm>
</extensions>
</trkpt>
<trkpt lat="64.324302673" lon="-20.133205414">
<ele>216.0</ele>
<time>2012-07-20T13:39:39Z</time>
<speed>4.760000</speed>
<extensions>
<speed>4.8</speed>
<temp>0.00</temp>
<bpm>0</bpm>
<rpm>0.00</rpm>
</extensions>
</trkpt>
<trkpt lat="64.322746277" lon="-20.134447098">
<ele>215.5</ele>
<time>2012-07-20T13:40:14Z</time>
<speed>5.160000</speed>
<extensions>
<speed>5.2</speed>
<temp>0.00</temp>
<bpm>0</bpm>
<rpm>0.00</rpm>
</extensions>
</trkpt>
<trkpt lat="64.320770264" lon="-20.134609222">
<ele>210.0</ele>
<time>2012-07-20T13:40:54Z</time>
<speed>7.580000</speed>
<extensions>
<speed>7.6</speed>
<temp>0.00</temp>
<bpm>0</bpm>
<rpm>0.00</rpm>
</extensions>
</trkpt>
<trkpt lat="64.320159912" lon="-20.135242462">
<ele>205.6</ele>
<time>2012-07-20T13:41:04Z</time>
<speed>7.070000</speed>
<extensions>
<speed>7.1</speed>
<temp>0.00</temp>
<bpm>0</bpm>
<rpm>0.00</rpm>
</extensions>
</trkpt>
<trkpt lat="64.319328308" lon="-20.137220383">
<ele>203.6</ele>
<time>2012-07-20T13:41:24Z</time>
<speed>6.590000</speed>
<extensions>
<speed>6.6</speed>
<temp>0.00</temp>
<bpm>0</bpm>
<rpm>0.00</rpm>
</extensions>
</trkpt>
<trkpt lat="64.317901611" lon="-20.139823914">
<ele>200.5</ele>
<time>2012-07-20T13:41:59Z</time>
<speed>4.630000</speed>
<extensions>
<speed>4.6</speed>
<temp>0.00</temp>
<bpm>0</bpm>
<rpm>0.00</rpm>
</extensions>
</trkpt>
<trkpt lat="64.316444397" lon="-20.146020889">
<ele>199.9</ele>
<time>2012-07-20T13:43:19Z</time>
<speed>4.090000</speed>
<extensions>
<speed>4.1</speed>
<temp>0.00</temp>
<bpm>0</bpm>
<rpm>0.00</rpm>
</extensions>
</trkpt>
<trkpt lat="64.315956116" lon="-20.147474289">
<ele>198.9</ele>
<time>2012-07-20T13:43:39Z</time>
<speed>4.420000</speed>
<extensions>
<speed>4.4</speed>
<temp>0.00</temp>
<bpm>0</bpm>
<rpm>0.00</rpm>
</extensions>
</trkpt>
<trkpt lat="64.306991577" lon="-20.164628983">
<ele>179.8</ele>
<time>2012-07-20T13:47:34Z</time>
<speed>5.470000</speed>
<extensions>
<speed>5.5</speed>
<temp>0.00</temp>
<bpm>0</bpm>
<rpm>0.00</rpm>
</extensions>
</trkpt>
<trkpt lat="64.306297302" lon="-20.166425705">
<ele>178.1</ele>
<time>2012-07-20T13:47:54Z</time>
<speed>6.150000</speed>
<extensions>
<speed>6.1</speed>
<temp>0.00</temp>
<bpm>0</bpm>
<rpm>0.00</rpm>
</extensions>
</trkpt>
<trkpt lat="64.305938721" lon="-20.167974472">
<ele>179.5</ele>
<time>2012-07-20T13:48:09Z</time>
<speed>4.130000</speed>
<extensions>
<speed>4.1</speed>
<temp>0.00</temp>
<bpm>0</bpm>
<rpm>0.00</rpm>
</extensions>
</trkpt>
<trkpt lat="64.305625916" lon="-20.171552658">
<ele>185.8</ele>
<time>2012-07-20T13:48:59Z</time>
<speed>3.530000</speed>
<extensions>
<speed>3.5</speed>
<temp>0.00</temp>
<bpm>0</bpm>
<rpm>0.00</rpm>
</extensions>
</trkpt>
<trkpt lat="64.305595398" lon="-20.181640625">
<ele>187.9</ele>
<time>2012-07-20T13:50:49Z</time>
<speed>4.290000</speed>
<extensions>
<speed>4.3</speed>
<temp>0.00</temp>
<bpm>0</bpm>
<rpm>0.00</rpm>
</extensions>
</trkpt>
<trkpt lat="64.306961060" lon="-20.196269989">
<ele>173.4</ele>
<time>2012-07-20T13:53:29Z</time>
<speed>7.350000</speed>
<extensions>
<speed>7.3</speed>
<temp>0.00</temp>
<bpm>0</bpm>
<rpm>0.00</rpm>
</extensions>
</trkpt>
<trkpt lat="64.309562683" lon="-20.230714798">
<ele>125.6</ele>
<time>2012-07-20T13:57:29Z</time>
<speed>1.830000</speed>
<extensions>
<speed>1.8</speed>
<temp>0.00</temp>
<bpm>0</bpm>
<rpm>0.00</rpm>
</extensions>
</trkpt>
<trkpt lat="64.309280396" lon="-20.231117249">
<ele>123.4</ele>
<time>2012-07-20T13:58:09Z</time>
<speed>3.920000</speed>
<extensions>
<speed>3.9</speed>
<temp>0.00</temp>
<bpm>0</bpm>
<rpm>0.00</rpm>
</extensions>
</trkpt>
<trkpt lat="64.305671692" lon="-20.240833282">
<ele>111.4</ele>
<time>2012-07-20T13:59:59Z</time>
<speed>5.550000</speed>
<extensions>
<speed>5.5</speed>
<temp>0.00</temp>
<bpm>0</bpm>
<rpm>0.00</rpm>
</extensions>
</trkpt>
<trkpt lat="64.304939270" lon="-20.242263794">
<ele>113.0</ele>
<time>2012-07-20T14:00:19Z</time>
<speed>4.230000</speed>
<extensions>
<speed>4.2</speed>
<temp>0.00</temp>
<bpm>0</bpm>
<rpm>0.00</rpm>
</extensions>
</trkpt>
<trkpt lat="64.299713135" lon="-20.243055344">
<ele>126.3</ele>
<time>2012-07-20T14:03:34Z</time>
<speed>2.780000</speed>
<extensions>
<speed>2.8</speed>
<temp>0.00</temp>
<bpm>0</bpm>
<rpm>0.00</rpm>
</extensions>
</trkpt>
<trkpt lat="64.298248291" lon="-20.242336273">
<ele>128.9</ele>
<time>2012-07-20T14:04:39Z</time>
<speed>1.790000</speed>
<extensions>
<speed>1.8</speed>
<temp>0.00</temp>
<bpm>0</bpm>
<rpm>0.00</rpm>
</extensions>
</trkpt>
<trkpt lat="64.297317505" lon="-20.241239548">
<ele>133.3</ele>
<time>2012-07-20T14:05:29Z</time>
<speed>2.350000</speed>
<extensions>
<speed>2.4</speed>
<temp>0.00</temp>
<bpm>0</bpm>
<rpm>0.00</rpm>
</extensions>
</trkpt>
<trkpt lat="64.296119690" lon="-20.238912582">
<ele>132.2</ele>
<time>2012-07-20T14:06:24Z</time>
<speed>3.890000</speed>
<extensions>
<speed>3.9</speed>
<temp>0.00</temp>
<bpm>0</bpm>
<rpm>0.00</rpm>
</extensions>
</trkpt>
<trkpt lat="64.294944763" lon="-20.237314224">
<ele>132.9</ele>
<time>2012-07-20T14:07:04Z</time>
<speed>4.020000</speed>
<extensions>
<speed>4.0</speed>
<temp>0.00</temp>
<bpm>0</bpm>
<rpm>0.00</rpm>
</extensions>
</trkpt>
<trkpt lat="64.292587280" lon="-20.235460281">
<ele>131.3</ele>
<time>2012-07-20T14:08:14Z</time>
<speed>4.400000</speed>
<extensions>
<speed>4.4</speed>
<temp>0.00</temp>
<bpm>0</bpm>
<rpm>0.00</rpm>
</extensions>
</trkpt>
<trkpt lat="64.291305542" lon="-20.233934402">
<ele>132.7</ele>
<time>2012-07-20T14:09:14Z</time>
<speed>2.940000</speed>
<extensions>
<speed>2.9</speed>
<temp>0.00</temp>
<bpm>0</bpm>
<rpm>0.00</rpm>
</extensions>
</trkpt>
<trkpt lat="64.287040710" lon="-20.226634979">
<ele>117.5</ele>
<time>2012-07-20T14:11:24Z</time>
<speed>7.560000</speed>
<extensions>
<speed>7.6</speed>
<temp>0.00</temp>
<bpm>0</bpm>
<rpm>0.00</rpm>
</extensions>
</trkpt>
<trkpt lat="64.285766602" lon="-20.225257874">
<ele>117.8</ele>
<time>2012-07-20T14:11:54Z</time>
<speed>4.740000</speed>
<extensions>
<speed>4.7</speed>
<temp>0.00</temp>
<bpm>0</bpm>
<rpm>0.00</rpm>
</extensions>
</trkpt>
<trkpt lat="64.280563354" lon="-20.224918365">
<ele>113.7</ele>
<time>2012-07-20T14:13:59Z</time>
<speed>4.530000</speed>
<extensions>
<speed>4.5</speed>
<temp>0.00</temp>
<bpm>0</bpm>
<rpm>0.00</rpm>
</extensions>
</trkpt>
<trkpt lat="64.276519775" lon="-20.226720810">
<ele>115.8</ele>
<time>2012-07-20T14:15:49Z</time>
<speed>3.190000</speed>
<extensions>
<speed>3.2</speed>
<temp>0.00</temp>
<bpm>0</bpm>
<rpm>0.00</rpm>
</extensions>
</trkpt>
<trkpt lat="64.274650574" lon="-20.226850510">
<ele>116.2</ele>
<time>2012-07-20T14:16:44Z</time>
<speed>4.260000</speed>
<extensions>
<speed>4.3</speed>
<temp>0.00</temp>
<bpm>0</bpm>
<rpm>0.00</rpm>
</extensions>
</trkpt>
<trkpt lat="64.272232056" lon="-20.225963593">
<ele>117.0</ele>
<time>2012-07-20T14:17:44Z</time>
<speed>4.490000</speed>
<extensions>
<speed>4.5</speed>
<temp>0.00</temp>
<bpm>0</bpm>
<rpm>0.00</rpm>
</extensions>
</trkpt>
<trkpt lat="64.270553589" lon="-20.226644516">
<ele>116.8</ele>
<time>2012-07-20T14:18:24Z</time>
<speed>4.810000</speed>
<extensions>
<speed>4.8</speed>
<temp>0.00</temp>
<bpm>0</bpm>
<rpm>0.00</rpm>
</extensions>
</trkpt>
<trkpt lat="64.269668579" lon="-20.226594925">
<ele>115.4</ele>
<time>2012-07-20T14:18:44Z</time>
<speed>5.030000</speed>
<extensions>
<speed>5.0</speed>
<temp>0.00</temp>
<bpm>0</bpm>
<rpm>0.00</rpm>
</extensions>
</trkpt>
<trkpt lat="64.266151428" lon="-20.223751068">
<ele>112.6</ele>
<time>2012-07-20T14:20:14Z</time>
<speed>4.560000</speed>
<extensions>
<speed>4.6</speed>
<temp>0.00</temp>
<bpm>0</bpm>
<rpm>0.00</rpm>
</extensions>
</trkpt>
<trkpt lat="64.265342712" lon="-20.223396301">
<ele>110.6</ele>
<time>2012-07-20T14:20:34Z</time>
<speed>4.810000</speed>
<extensions>
<speed>4.8</speed>
<temp>0.00</temp>
<bpm>0</bpm>
<rpm>0.00</rpm>
</extensions>
</trkpt>
<trkpt lat="64.264602661" lon="-20.223459244">
<ele>105.9</ele>
<time>2012-07-20T14:20:49Z</time>
<speed>6.750000</speed>
<extensions>
<speed>6.7</speed>
<temp>0.00</temp>
<bpm>0</bpm>
<rpm>0.00</rpm>
</extensions>
</trkpt>
<trkpt lat="64.263183594" lon="-20.224567413">
<ele>96.7</ele>
<time>2012-07-20T14:21:09Z</time>
<speed>9.510000</speed>
<extensions>
<speed>9.5</speed>
<temp>0.00</temp>
<bpm>0</bpm>
<rpm>0.00</rpm>
</extensions>
</trkpt>
<trkpt lat="64.262008667" lon="-20.224861145">
<ele>94.4</ele>
<time>2012-07-20T14:21:24Z</time>
<speed>7.230000</speed>
<extensions>
<speed>7.2</speed>
<temp>0.00</temp>
<bpm>0</bpm>
<rpm>0.00</rpm>
</extensions>
</trkpt>
<trkpt lat="64.261489868" lon="-20.224086761">
<ele>89.5</ele>
<time>2012-07-20T14:21:39Z</time>
<speed>2.490000</speed>
<extensions>
<speed>2.5</speed>
<temp>0.00</temp>
<bpm>0</bpm>
<rpm>0.00</rpm>
</extensions>
</trkpt>
<trkpt lat="64.260856628" lon="-20.222505569">
<ele>96.9</ele>
<time>2012-07-20T14:22:59Z</time>
<speed>1.840000</speed>
<extensions>
<speed>1.8</speed>
<temp>0.00</temp>
<bpm>0</bpm>
<rpm>0.00</rpm>
</extensions>
</trkpt>
<trkpt lat="64.260673523" lon="-20.221597672">
<ele>103.3</ele>
<time>2012-07-20T14:23:29Z</time>
<speed>1.900000</speed>
<extensions>
<speed>1.9</speed>
<temp>0.00</temp>
<bpm>0</bpm>
<rpm>0.00</rpm>
</extensions>
</trkpt>
<trkpt lat="64.260238647" lon="-20.221849442">
<ele>105.7</ele>
<time>2012-07-20T14:31:09Z</time>
<extensions>
<speed>0.0</speed>
<temp>0.00</temp>
<bpm>0</bpm>
<rpm>0.00</rpm>
</extensions>
</trkpt>
<trkpt lat="64.260772705" lon="-20.221467972">
<ele>102.6</ele>
<time>2012-07-20T14:36:59Z</time>
<speed>3.850000</speed>
<extensions>
<speed>3.8</speed>
<temp>0.00</temp>
<bpm>0</bpm>
<rpm>0.00</rpm>
</extensions>
</trkpt>
<trkpt lat="64.263343811" lon="-20.218248367">
<ele>109.4</ele>
<time>2012-07-20T14:38:49Z</time>
<speed>1.220000</speed>
<extensions>
<speed>1.2</speed>
<temp>0.00</temp>
<bpm>0</bpm>
<rpm>0.00</rpm>
</extensions>
</trkpt>
<trkpt lat="64.263259888" lon="-20.218378067">
<ele>108.7</ele>
<time>2012-07-20T14:39:04Z</time>
<speed>1.600000</speed>
<extensions>
<speed>1.6</speed>
<temp>0.00</temp>
<bpm>0</bpm>
<rpm>0.00</rpm>
</extensions>
</trkpt>
<trkpt lat="64.264442444" lon="-20.216152191">
<ele>108.7</ele>
<time>2012-07-20T14:39:59Z</time>
<speed>2.700000</speed>
<extensions>
<speed>2.7</speed>
<temp>0.00</temp>
<bpm>0</bpm>
<rpm>0.00</rpm>
</extensions>
</trkpt>
<trkpt lat="64.264884949" lon="-20.214155197">
<ele>112.7</ele>
<time>2012-07-20T14:40:44Z</time>
<speed>2.170000</speed>
<extensions>
<speed>2.2</speed>
<temp>0.00</temp>
<bpm>0</bpm>
<rpm>0.00</rpm>
</extensions>
</trkpt>
<trkpt lat="64.265304565" lon="-20.209604263">
<ele>114.0</ele>
<time>2012-07-20T14:41:59Z</time>
<speed>3.630000</speed>
<extensions>
<speed>3.6</speed>
<temp>0.00</temp>
<bpm>0</bpm>
<rpm>0.00</rpm>
</extensions>
</trkpt>
<trkpt lat="64.268882751" lon="-20.197572708">
<ele>115.0</ele>
<time>2012-07-20T14:45:04Z</time>
<speed>3.610000</speed>
<extensions>
<speed>3.6</speed>
<temp>0.00</temp>
<bpm>0</bpm>
<rpm>0.00</rpm>
</extensions>
</trkpt>
<trkpt lat="64.269081116" lon="-20.196229935">
<ele>116.6</ele>
<time>2012-07-20T14:45:24Z</time>
<speed>3.170000</speed>
<extensions>
<speed>3.2</speed>
<temp>0.00</temp>
<bpm>0</bpm>
<rpm>0.00</rpm>
</extensions>
</trkpt>
<trkpt lat="64.269012451" lon="-20.194782257">
<ele>118.6</ele>
<time>2012-07-20T14:45:49Z</time>
<speed>2.600000</speed>
<extensions>
<speed>2.6</speed>
<temp>0.00</temp>
<bpm>0</bpm>
<rpm>0.00</rpm>
</extensions>
</trkpt>
<trkpt lat="64.268669128" lon="-20.193531036">
<ele>120.6</ele>
<time>2012-07-20T14:46:14Z</time>
<speed>2.970000</speed>
<extensions>
<speed>3.0</speed>
<temp>0.00</temp>
<bpm>0</bpm>
<rpm>0.00</rpm>
</extensions>
</trkpt>
<trkpt lat="64.268211365" lon="-20.192790985">
<ele>122.8</ele>
<time>2012-07-20T14:46:39Z</time>
<speed>2.580000</speed>
<extensions>
<speed>2.6</speed>
<temp>0.00</temp>
<bpm>0</bpm>
<rpm>0.00</rpm>
</extensions>
</trkpt>
<trkpt lat="64.267364502" lon="-20.192646027">
<ele>126.4</ele>
<time>2012-07-20T14:47:24Z</time>
<speed>2.560000</speed>
<extensions>
<speed>2.6</speed>
<temp>0.00</temp>
<bpm>0</bpm>
<rpm>0.00</rpm>
</extensions>
</trkpt>
<trkpt lat="64.265037537" lon="-20.194658279">
<ele>135.6</ele>
<time>2012-07-20T14:49:29Z</time>
<speed>2.270000</speed>
<extensions>
<speed>2.3</speed>
<temp>0.00</temp>
<bpm>0</bpm>
<rpm>0.00</rpm>
</extensions>
</trkpt>
<trkpt lat="64.258552551" lon="-20.198186874">
<ele>156.0</ele>
<time>2012-07-20T14:54:49Z</time>
<speed>3.650000</speed>
<extensions>
<speed>3.7</speed>
<temp>0.00</temp>
<bpm>0</bpm>
<rpm>0.00</rpm>
</extensions>
</trkpt>
<trkpt lat="64.254127502" lon="-20.201204300">
<ele>174.8</ele>
<time>2012-07-20T14:58:19Z</time>
<speed>3.850000</speed>
<extensions>
<speed>3.8</speed>
<temp>0.00</temp>
<bpm>0</bpm>
<rpm>0.00</rpm>
</extensions>
</trkpt>
<trkpt lat="64.248977661" lon="-20.205768585">
<ele>197.4</ele>
<time>2012-07-20T15:03:04Z</time>
<speed>3.110000</speed>
<extensions>
<speed>3.1</speed>
<temp>0.00</temp>
<bpm>0</bpm>
<rpm>0.00</rpm>
</extensions>
</trkpt>
<trkpt lat="64.248321533" lon="-20.206935883">
<ele>198.8</ele>
<time>2012-07-20T15:03:34Z</time>
<speed>3.010000</speed>
<extensions>
<speed>3.0</speed>
<temp>0.00</temp>
<bpm>0</bpm>
<rpm>0.00</rpm>
</extensions>
</trkpt>
<trkpt lat="64.247367859" lon="-20.209817886">
<ele>203.7</ele>
<time>2012-07-20T15:04:39Z</time>
<speed>1.750000</speed>
<extensions>
<speed>1.8</speed>
<temp>0.00</temp>
<bpm>0</bpm>
<rpm>0.00</rpm>
</extensions>
</trkpt>
<trkpt lat="64.246437073" lon="-20.211597443">
<ele>210.1</ele>
<time>2012-07-20T15:05:44Z</time>
<speed>2.650000</speed>
<extensions>
<speed>2.6</speed>
<temp>0.00</temp>
<bpm>0</bpm>
<rpm>0.00</rpm>
</extensions>
</trkpt>
<trkpt lat="64.245750427" lon="-20.212682724">
<ele>210.7</ele>
<time>2012-07-20T15:06:34Z</time>
<speed>0.120000</speed>
<extensions>
<speed>0.1</speed>
<temp>0.00</temp>
<bpm>0</bpm>
<rpm>0.00</rpm>
</extensions>
</trkpt>
<trkpt lat="64.243881226" lon="-20.214439392">
<ele>204.5</ele>
<time>2012-07-20T15:25:29Z</time>
<speed>5.770000</speed>
<extensions>
<speed>5.8</speed>
<temp>0.00</temp>
<bpm>0</bpm>
<rpm>0.00</rpm>
</extensions>
</trkpt>
<trkpt lat="64.242568970" lon="-20.216363907">
<ele>204.3</ele>
<time>2012-07-20T15:25:59Z</time>
<speed>5.760000</speed>
<extensions>
<speed>5.8</speed>
<temp>0.00</temp>
<bpm>0</bpm>
<rpm>0.00</rpm>
</extensions>
</trkpt>
<trkpt lat="64.241180420" lon="-20.219400406">
<ele>200.5</ele>
<time>2012-07-20T15:26:39Z</time>
<speed>5.870000</speed>
<extensions>
<speed>5.9</speed>
<temp>0.00</temp>
<bpm>0</bpm>
<rpm>0.00</rpm>
</extensions>
</trkpt>
<trkpt lat="64.237060547" lon="-20.231584549">
<ele>168.5</ele>
<time>2012-07-20T15:28:24Z</time>
<speed>5.180000</speed>
<extensions>
<speed>5.2</speed>
<temp>0.00</temp>
<bpm>0</bpm>
<rpm>0.00</rpm>
</extensions>
</trkpt>
<trkpt lat="64.234466553" lon="-20.238128662">
<ele>156.1</ele>
<time>2012-07-20T15:29:39Z</time>
<speed>6.360000</speed>
<extensions>
<speed>6.4</speed>
<temp>0.00</temp>
<bpm>0</bpm>
<rpm>0.00</rpm>
</extensions>
</trkpt>
<trkpt lat="64.232482910" lon="-20.241456985">
<ele>145.7</ele>
<time>2012-07-20T15:30:19Z</time>
<speed>7.170000</speed>
<extensions>
<speed>7.2</speed>
<temp>0.00</temp>
<bpm>0</bpm>
<rpm>0.00</rpm>
</extensions>
</trkpt>
<trkpt lat="64.230125427" lon="-20.246280670">
<ele>131.1</ele>
<time>2012-07-20T15:31:09Z</time>
<speed>6.040000</speed>
<extensions>
<speed>6.0</speed>
<temp>0.00</temp>
<bpm>0</bpm>
<rpm>0.00</rpm>
</extensions>
</trkpt>
<trkpt lat="64.226921082" lon="-20.250684738">
<ele>120.9</ele>
<time>2012-07-20T15:32:24Z</time>
<speed>6.060000</speed>
<extensions>
<speed>6.1</speed>
<temp>0.00</temp>
<bpm>0</bpm>
<rpm>0.00</rpm>
</extensions>
</trkpt>
<trkpt lat="64.224555969" lon="-20.255369186">
<ele>103.8</ele>
<time>2012-07-20T15:33:14Z</time>
<speed>8.160000</speed>
<extensions>
<speed>8.2</speed>
<temp>0.00</temp>
<bpm>0</bpm>
<rpm>0.00</rpm>
</extensions>
</trkpt>
<trkpt lat="64.222740173" lon="-20.257785797">
<ele>95.1</ele>
<time>2012-07-20T15:33:44Z</time>
<speed>6.250000</speed>
<extensions>
<speed>6.3</speed>
<temp>0.00</temp>
<bpm>0</bpm>
<rpm>0.00</rpm>
</extensions>
</trkpt>
<trkpt lat="64.216369629" lon="-20.262241364">
<ele>96.4</ele>
<time>2012-07-20T15:36:49Z</time>
<speed>3.550000</speed>
<extensions>
<speed>3.5</speed>
<temp>0.00</temp>
<bpm>0</bpm>
<rpm>0.00</rpm>
</extensions>
</trkpt>
<trkpt lat="64.208641052" lon="-20.269618988">
<ele>98.4</ele>
<time>2012-07-20T15:41:54Z</time>
<speed>2.780000</speed>
<extensions>
<speed>2.8</speed>
<temp>0.00</temp>
<bpm>0</bpm>
<rpm>0.00</rpm>
</extensions>
</trkpt>
<trkpt lat="64.204299927" lon="-20.274204254">
<ele>97.4</ele>
<time>2012-07-20T15:44:14Z</time>
<speed>4.370000</speed>
<extensions>
<speed>4.4</speed>
<temp>0.00</temp>
<bpm>0</bpm>
<rpm>0.00</rpm>
</extensions>
</trkpt>
<trkpt lat="64.199203491" lon="-20.277601242">
<ele>84.0</ele>
<time>2012-07-20T15:46:14Z</time>
<speed>4.200000</speed>
<extensions>
<speed>4.2</speed>
<temp>0.00</temp>
<bpm>0</bpm>
<rpm>0.00</rpm>
</extensions>
</trkpt>
<trkpt lat="64.197898865" lon="-20.277933121">
<ele>85.2</ele>
<time>2012-07-20T15:46:54Z</time>
<speed>2.930000</speed>
<extensions>
<speed>2.9</speed>
<temp>0.00</temp>
<bpm>0</bpm>
<rpm>0.00</rpm>
</extensions>
</trkpt>
<trkpt lat="64.190956116" lon="-20.277744293">
<ele>81.8</ele>
<time>2012-07-20T15:50:04Z</time>
<speed>3.890000</speed>
<extensions>
<speed>3.9</speed>
<temp>0.00</temp>
<bpm>0</bpm>
<rpm>0.00</rpm>
</extensions>
</trkpt>
<trkpt lat="64.189514160" lon="-20.278059006">
<ele>84.9</ele>
<time>2012-07-20T15:50:44Z</time>
<speed>4.250000</speed>
<extensions>
<speed>4.3</speed>
<temp>0.00</temp>
<bpm>0</bpm>
<rpm>0.00</rpm>
</extensions>
</trkpt>
<trkpt lat="64.188041687" lon="-20.278913498">
<ele>87.2</ele>
<time>2012-07-20T15:51:29Z</time>
<speed>3.970000</speed>
<extensions>
<speed>4.0</speed>
<temp>0.00</temp>
<bpm>0</bpm>
<rpm>0.00</rpm>
</extensions>
</trkpt>
<trkpt lat="64.179786682" lon="-20.285552979">
<ele>87.4</ele>
<time>2012-07-20T15:55:49Z</time>
<speed>2.430000</speed>
<extensions>
<speed>2.4</speed>
<temp>0.00</temp>
<bpm>0</bpm>
<rpm>0.00</rpm>
</extensions>
</trkpt>
<trkpt lat="64.178199768" lon="-20.286344528">
<ele>96.2</ele>
<time>2012-07-20T15:57:19Z</time>
<speed>1.760000</speed>
<extensions>
<speed>1.8</speed>
<temp>0.00</temp>
<bpm>0</bpm>
<rpm>0.00</rpm>
</extensions>
</trkpt>
<trkpt lat="64.176567078" lon="-20.286293030">
<ele>101.0</ele>
<time>2012-07-20T15:58:34Z</time>
<speed>3.110000</speed>
<extensions>
<speed>3.1</speed>
<temp>0.00</temp>
<bpm>0</bpm>
<rpm>0.00</rpm>
</extensions>
</trkpt>
<trkpt lat="64.173103333" lon="-20.284797668">
<ele>105.2</ele>
<time>2012-07-20T16:01:04Z</time>
<speed>3.850000</speed>
<extensions>
<speed>3.8</speed>
<temp>0.00</temp>
<bpm>0</bpm>
<rpm>0.00</rpm>
</extensions>
</trkpt>
<trkpt lat="64.172256470" lon="-20.284915924">
<ele>105.3</ele>
<time>2012-07-20T16:01:34Z</time>
<speed>3.800000</speed>
<extensions>
<speed>3.8</speed>
<temp>0.00</temp>
<bpm>0</bpm>
<rpm>0.00</rpm>
</extensions>
</trkpt>
<trkpt lat="64.171302795" lon="-20.285495758">
<ele>102.9</ele>
<time>2012-07-20T16:02:04Z</time>
<speed>4.200000</speed>
<extensions>
<speed>4.2</speed>
<temp>0.00</temp>
<bpm>0</bpm>
<rpm>0.00</rpm>
</extensions>
</trkpt>
<trkpt lat="64.167381287" lon="-20.290504456">
<ele>100.6</ele>
<time>2012-07-20T16:04:04Z</time>
<speed>2.740000</speed>
<extensions>
<speed>2.7</speed>
<temp>0.00</temp>
<bpm>0</bpm>
<rpm>0.00</rpm>
</extensions>
</trkpt>
<trkpt lat="64.164810181" lon="-20.295640945">
<ele>99.2</ele>
<time>2012-07-20T16:05:54Z</time>
<speed>1.910000</speed>
<extensions>
<speed>1.9</speed>
<temp>0.00</temp>
<bpm>0</bpm>
<rpm>0.00</rpm>
</extensions>
</trkpt>
<trkpt lat="64.158935547" lon="-20.303640366">
<ele>97.1</ele>
<time>2012-07-20T16:09:29Z</time>
<speed>3.160000</speed>
<extensions>
<speed>3.2</speed>
<temp>0.00</temp>
<bpm>0</bpm>
<rpm>0.00</rpm>
</extensions>
</trkpt>
<trkpt lat="64.158180237" lon="-20.305482864">
<ele>97.1</ele>
<time>2012-07-20T16:09:59Z</time>
<speed>3.930000</speed>
<extensions>
<speed>3.9</speed>
<temp>0.00</temp>
<bpm>0</bpm>
<rpm>0.00</rpm>
</extensions>
</trkpt>
<trkpt lat="64.156402588" lon="-20.312675476">
<ele>89.3</ele>
<time>2012-07-20T16:11:29Z</time>
<speed>4.570000</speed>
<extensions>
<speed>4.6</speed>
<temp>0.00</temp>
<bpm>0</bpm>
<rpm>0.00</rpm>
</extensions>
</trkpt>
<trkpt lat="64.154312134" lon="-20.316482544">
<ele>86.6</ele>
<time>2012-07-20T16:12:34Z</time>
<speed>3.840000</speed>
<extensions>
<speed>3.8</speed>
<temp>0.00</temp>
<bpm>0</bpm>
<rpm>0.00</rpm>
</extensions>
</trkpt>
<trkpt lat="64.153251648" lon="-20.317550659">
<ele>86.2</ele>
<time>2012-07-20T16:13:09Z</time>
<speed>3.030000</speed>
<extensions>
<speed>3.0</speed>
<temp>0.00</temp>
<bpm>0</bpm>
<rpm>0.00</rpm>
</extensions>
</trkpt>
<trkpt lat="64.141227722" lon="-20.326456070">
<ele>73.7</ele>
<time>2012-07-20T16:19:09Z</time>
<speed>2.490000</speed>
<extensions>
<speed>2.5</speed>
<temp>0.00</temp>
<bpm>0</bpm>
<rpm>0.00</rpm>
</extensions>
</trkpt>
<trkpt lat="64.139785767" lon="-20.326910019">
<ele>73.9</ele>
<time>2012-07-20T16:20:19Z</time>
<speed>3.260000</speed>
<extensions>
<speed>3.3</speed>
<temp>0.00</temp>
<bpm>0</bpm>
<rpm>0.00</rpm>
</extensions>
</trkpt>
<trkpt lat="64.139457703" lon="-20.327302933">
<ele>74.1</ele>
<time>2012-07-20T16:20:34Z</time>
<speed>2.820000</speed>
<extensions>
<speed>2.8</speed>
<temp>0.00</temp>
<bpm>0</bpm>
<rpm>0.00</rpm>
</extensions>
</trkpt>
<trkpt lat="64.139373779" lon="-20.327779770">
<ele>73.2</ele>
<time>2012-07-20T16:24:39Z</time>
<speed>1.630000</speed>
<extensions>
<speed>1.6</speed>
<temp>0.00</temp>
<bpm>0</bpm>
<rpm>0.00</rpm>
</extensions>
</trkpt>
<trkpt lat="64.136947632" lon="-20.325185776">
<ele>73.4</ele>
<time>2012-07-20T16:26:24Z</time>
<speed>2.960000</speed>
<extensions>
<speed>3.0</speed>
<temp>0.00</temp>
<bpm>0</bpm>
<rpm>0.00</rpm>
</extensions>
</trkpt>
<trkpt lat="64.134384155" lon="-20.324842453">
<ele>69.5</ele>
<time>2012-07-20T16:27:39Z</time>
<speed>5.210000</speed>
<extensions>
<speed>5.2</speed>
<temp>0.00</temp>
<bpm>0</bpm>
<rpm>0.00</rpm>
</extensions>
</trkpt>
<trkpt lat="64.130950928" lon="-20.321687698">
<ele>78.7</ele>
<time>2012-07-20T16:29:39Z</time>
<speed>0.910000</speed>
<extensions>
<speed>0.9</speed>
<temp>0.00</temp>
<bpm>0</bpm>
<rpm>0.00</rpm>
</extensions>
</trkpt>
<trkpt lat="64.130943298" lon="-20.321308136">
<ele>78.8</ele>
<time>2012-07-20T17:16:49Z</time>
<speed>0.010000</speed>
<extensions>
<speed>0.0</speed>
<temp>0.00</temp>
<bpm>0</bpm>
<rpm>0.00</rpm>
</extensions>
</trkpt>
<trkpt lat="64.130470276" lon="-20.321029663">
<ele>80.1</ele>
<time>2012-07-20T17:32:49Z</time>
<speed>2.440000</speed>
<extensions>
<speed>2.4</speed>
<temp>0.00</temp>
<bpm>0</bpm>
<rpm>0.00</rpm>
</extensions>
</trkpt>
<trkpt lat="64.130561829" lon="-20.320734024">
<ele>79.8</ele>
<time>2012-07-20T17:34:29Z</time>
<speed>0.010000</speed>
<extensions>
<speed>0.0</speed>
<temp>0.00</temp>
<bpm>0</bpm>
<rpm>0.00</rpm>
</extensions>
</trkpt>
<trkpt lat="64.130668640" lon="-20.320878983">
<ele>79.2</ele>
<time>2012-07-20T17:34:49Z</time>
<speed>1.510000</speed>
<extensions>
<speed>1.5</speed>
<temp>0.00</temp>
<bpm>0</bpm>
<rpm>0.00</rpm>
</extensions>
</trkpt>
<trkpt lat="64.130531311" lon="-20.321166992">
<ele>79.8</ele>
<time>2012-07-20T17:35:04Z</time>
<speed>2.220000</speed>
<extensions>
<speed>2.2</speed>
<temp>0.00</temp>
<bpm>0</bpm>
<rpm>0.00</rpm>
</extensions>
</trkpt>
<trkpt lat="64.130706787" lon="-20.321163177">
<ele>79.1</ele>
<time>2012-07-20T17:35:59Z</time>
<speed>2.020000</speed>
<extensions>
<speed>2.0</speed>
<temp>0.00</temp>
<bpm>0</bpm>
<rpm>0.00</rpm>
</extensions>
</trkpt>
<trkpt lat="64.130760193" lon="-20.320577621">
<ele>79.5</ele>
<time>2012-07-20T17:36:14Z</time>
<speed>1.510000</speed>
<extensions>
<speed>1.5</speed>
<temp>0.00</temp>
<bpm>0</bpm>
<rpm>0.00</rpm>
</extensions>
</trkpt>
<trkpt lat="64.130470276" lon="-20.317850113">
<ele>78.1</ele>
<time>2012-07-20T17:36:54Z</time>
<speed>4.540000</speed>
<extensions>
<speed>4.5</speed>
<temp>0.00</temp>
<bpm>0</bpm>
<rpm>0.00</rpm>
</extensions>
</trkpt>
<trkpt lat="64.130027771" lon="-20.316730499">
<ele>79.9</ele>
<time>2012-07-20T17:37:09Z</time>
<speed>4.630000</speed>
<extensions>
<speed>4.6</speed>
<temp>0.00</temp>
<bpm>0</bpm>
<rpm>0.00</rpm>
</extensions>
</trkpt>
<trkpt lat="64.129615784" lon="-20.316320419">
<ele>80.1</ele>
<time>2012-07-20T17:37:19Z</time>
<speed>4.410000</speed>
<extensions>
<speed>4.4</speed>
<temp>0.00</temp>
<bpm>0</bpm>
<rpm>0.00</rpm>
</extensions>
</trkpt>
<trkpt lat="64.128463745" lon="-20.316757202">
<ele>80.4</ele>
<time>2012-07-20T17:37:44Z</time>
<speed>5.190000</speed>
<extensions>
<speed>5.2</speed>
<temp>0.00</temp>
<bpm>0</bpm>
<rpm>0.00</rpm>
</extensions>
</trkpt>
<trkpt lat="64.127296448" lon="-20.316493988">
<ele>79.9</ele>
<time>2012-07-20T17:38:09Z</time>
<speed>4.490000</speed>
<extensions>
<speed>4.5</speed>
<temp>0.00</temp>
<bpm>0</bpm>
<rpm>0.00</rpm>
</extensions>
</trkpt>
<trkpt lat="64.125549316" lon="-20.317611694">
<ele>80.8</ele>
<time>2012-07-20T17:38:54Z</time>
<speed>4.550000</speed>
<extensions>
<speed>4.5</speed>
<temp>0.00</temp>
<bpm>0</bpm>
<rpm>0.00</rpm>
</extensions>
</trkpt>
<trkpt lat="64.118034363" lon="-20.317543030">
<ele>87.6</ele>
<time>2012-07-20T17:42:04Z</time>
<speed>4.000000</speed>
<extensions>
<speed>4.0</speed>
<temp>0.00</temp>
<bpm>0</bpm>
<rpm>0.00</rpm>
</extensions>
</trkpt>
<trkpt lat="64.113594055" lon="-20.319412231">
<ele>89.6</ele>
<time>2012-07-20T17:44:14Z</time>
<speed>4.270000</speed>
<extensions>
<speed>4.3</speed>
<temp>0.00</temp>
<bpm>0</bpm>
<rpm>0.00</rpm>
</extensions>
</trkpt>
<trkpt lat="64.112457275" lon="-20.320583344">
<ele>89.9</ele>
<time>2012-07-20T17:44:59Z</time>
<extensions>
<speed>0.0</speed>
<temp>0.00</temp>
<bpm>0</bpm>
<rpm>0.00</rpm>
</extensions>
</trkpt>
<trkpt lat="64.106010437" lon="-20.329378128">
<ele>101.2</ele>
<time>2012-07-20T17:50:39Z</time>
<speed>3.150000</speed>
<extensions>
<speed>3.2</speed>
<temp>0.00</temp>
<bpm>0</bpm>
<rpm>0.00</rpm>
</extensions>
</trkpt>
<trkpt lat="64.105049133" lon="-20.330333710">
<ele>106.4</ele>
<time>2012-07-20T17:51:24Z</time>
<speed>2.790000</speed>
<extensions>
<speed>2.8</speed>
<temp>0.00</temp>
<bpm>0</bpm>
<rpm>0.00</rpm>
</extensions>
</trkpt>
<trkpt lat="64.104080200" lon="-20.330722809">
<ele>109.2</ele>
<time>2012-07-20T17:52:04Z</time>
<speed>3.640000</speed>
<extensions>
<speed>3.6</speed>
<temp>0.00</temp>
<bpm>0</bpm>
<rpm>0.00</rpm>
</extensions>
</trkpt>
<trkpt lat="64.102729797" lon="-20.330337524">
<ele>109.4</ele>
<time>2012-07-20T17:52:49Z</time>
<speed>2.910000</speed>
<extensions>
<speed>2.9</speed>
<temp>0.00</temp>
<bpm>0</bpm>
<rpm>0.00</rpm>
</extensions>
</trkpt>
<trkpt lat="64.093360901" lon="-20.323232651">
<ele>101.9</ele>
<time>2012-07-20T17:59:14Z</time>
<speed>5.800000</speed>
<extensions>
<speed>5.8</speed>
<temp>0.00</temp>
<bpm>0</bpm>
<rpm>0.00</rpm>
</extensions>
</trkpt>
<trkpt lat="64.084465027" lon="-20.318834305">
<ele>103.1</ele>
<time>2012-07-20T18:02:39Z</time>
<speed>4.940000</speed>
<extensions>
<speed>4.9</speed>
<temp>0.00</temp>
<bpm>0</bpm>
<rpm>0.00</rpm>
</extensions>
</trkpt>
<trkpt lat="64.082229614" lon="-20.318380356">
<ele>105.6</ele>
<time>2012-07-20T18:03:39Z</time>
<speed>3.640000</speed>
<extensions>
<speed>3.6</speed>
<temp>0.00</temp>
<bpm>0</bpm>
<rpm>0.00</rpm>
</extensions>
</trkpt>
<trkpt lat="64.080947876" lon="-20.318805695">
<ele>104.5</ele>
<time>2012-07-20T18:04:14Z</time>
<speed>4.190000</speed>
<extensions>
<speed>4.2</speed>
<temp>0.00</temp>
<bpm>0</bpm>
<rpm>0.00</rpm>
</extensions>
</trkpt>
<trkpt lat="64.079803467" lon="-20.319705963">
<ele>98.0</ele>
<time>2012-07-20T18:04:44Z</time>
<speed>5.480000</speed>
<extensions>
<speed>5.5</speed>
<temp>0.00</temp>
<bpm>0</bpm>
<rpm>0.00</rpm>
</extensions>
</trkpt>
<trkpt lat="64.070716858" lon="-20.331422806">
<ele>89.1</ele>
<time>2012-07-20T18:08:39Z</time>
<speed>2.870000</speed>
<extensions>
<speed>2.9</speed>
<temp>0.00</temp>
<bpm>0</bpm>
<rpm>0.00</rpm>
</extensions>
</trkpt>
<trkpt lat="64.064315796" lon="-20.338199615">
<ele>75.7</ele>
<time>2012-07-20T18:10:54Z</time>
<speed>5.550000</speed>
<extensions>
<speed>5.5</speed>
<temp>0.00</temp>
<bpm>0</bpm>
<rpm>0.00</rpm>
</extensions>
</trkpt>
<trkpt lat="64.062965393" lon="-20.340476990">
<ele>75.1</ele>
<time>2012-07-20T18:11:29Z</time>
<speed>4.480000</speed>
<extensions>
<speed>4.5</speed>
<temp>0.00</temp>
<bpm>0</bpm>
<rpm>0.00</rpm>
</extensions>
</trkpt>
<trkpt lat="64.062141418" lon="-20.342435837">
<ele>73.2</ele>
<time>2012-07-20T18:11:59Z</time>
<speed>4.700000</speed>
<extensions>
<speed>4.7</speed>
<temp>0.00</temp>
<bpm>0</bpm>
<rpm>0.00</rpm>
</extensions>
</trkpt>
<trkpt lat="64.061317444" lon="-20.345144272">
<ele>67.2</ele>
<time>2012-07-20T18:12:29Z</time>
<speed>6.230000</speed>
<extensions>
<speed>6.2</speed>
<temp>0.00</temp>
<bpm>0</bpm>
<rpm>0.00</rpm>
</extensions>
</trkpt>
<trkpt lat="64.059555054" lon="-20.353536606">
<ele>62.3</ele>
<time>2012-07-20T18:14:04Z</time>
<speed>2.970000</speed>
<extensions>
<speed>3.0</speed>
<temp>0.00</temp>
<bpm>0</bpm>
<rpm>0.00</rpm>
</extensions>
</trkpt>
<trkpt lat="64.058624268" lon="-20.356983185">
<ele>61.5</ele>
<time>2012-07-20T18:14:59Z</time>
<speed>3.750000</speed>
<extensions>
<speed>3.8</speed>
<temp>0.00</temp>
<bpm>0</bpm>
<rpm>0.00</rpm>
</extensions>
</trkpt>
<trkpt lat="64.057167053" lon="-20.361133575">
<ele>58.9</ele>
<time>2012-07-20T18:16:19Z</time>
<speed>3.910000</speed>
<extensions>
<speed>3.9</speed>
<temp>0.00</temp>
<bpm>0</bpm>
<rpm>0.00</rpm>
</extensions>
</trkpt>
<trkpt lat="64.054779053" lon="-20.366662979">
<ele>68.3</ele>
<time>2012-07-20T18:20:29Z</time>
<speed>2.730000</speed>
<extensions>
<speed>2.7</speed>
<temp>0.00</temp>
<bpm>0</bpm>
<rpm>0.00</rpm>
</extensions>
</trkpt>
<trkpt lat="64.054191589" lon="-20.368623734">
<ele>68.1</ele>
<time>2012-07-20T18:20:59Z</time>
<speed>4.660000</speed>
<extensions>
<speed>4.7</speed>
<temp>0.00</temp>
<bpm>0</bpm>
<rpm>0.00</rpm>
</extensions>
</trkpt>
<trkpt lat="64.047264099" lon="-20.407823563">
<ele>66.3</ele>
<time>2012-07-20T18:33:19Z</time>
<speed>3.480000</speed>
<extensions>
<speed>3.5</speed>
<temp>0.00</temp>
<bpm>0</bpm>
<rpm>0.00</rpm>
</extensions>
</trkpt>
<trkpt lat="64.046607971" lon="-20.410150528">
<ele>69.0</ele>
<time>2012-07-20T18:33:59Z</time>
<speed>3.880000</speed>
<extensions>
<speed>3.9</speed>
<temp>0.00</temp>
<bpm>0</bpm>
<rpm>0.00</rpm>
</extensions>
</trkpt>
<trkpt lat="64.045982361" lon="-20.411449432">
<ele>69.8</ele>
<time>2012-07-20T18:34:39Z</time>
<speed>2.260000</speed>
<extensions>
<speed>2.3</speed>
<temp>0.00</temp>
<bpm>0</bpm>
<rpm>0.00</rpm>
</extensions>
</trkpt>
<trkpt lat="64.033683777" lon="-20.357849121">
<ele>68.5</ele>
<time>2012-07-20T18:48:14Z</time>
<speed>4.570000</speed>
<extensions>
<speed>4.6</speed>
<temp>0.00</temp>
<bpm>0</bpm>
<rpm>0.00</rpm>
</extensions>
</trkpt>
<trkpt lat="64.033409119" lon="-20.355129242">
<ele>69.5</ele>
<time>2012-07-20T18:48:44Z</time>
<speed>4.700000</speed>
<extensions>
<speed>4.7</speed>
<temp>0.00</temp>
<bpm>0</bpm>
<rpm>0.00</rpm>
</extensions>
</trkpt>
<trkpt lat="64.033462524" lon="-20.353370667">
<ele>68.5</ele>
<time>2012-07-20T18:49:04Z</time>
<speed>4.220000</speed>
<extensions>
<speed>4.2</speed>
<temp>0.00</temp>
<bpm>0</bpm>
<rpm>0.00</rpm>
</extensions>
</trkpt>
<trkpt lat="64.034370422" lon="-20.346086502">
<ele>69.3</ele>
<time>2012-07-20T18:50:29Z</time>
<speed>4.610000</speed>
<extensions>
<speed>4.6</speed>
<temp>0.00</temp>
<bpm>0</bpm>
<rpm>0.00</rpm>
</extensions>
</trkpt>
<trkpt lat="64.034439087" lon="-20.341651917">
<ele>69.8</ele>
<time>2012-07-20T18:51:19Z</time>
<speed>5.650000</speed>
<extensions>
<speed>5.7</speed>
<temp>0.00</temp>
<bpm>0</bpm>
<rpm>0.00</rpm>
</extensions>
</trkpt>
<trkpt lat="64.034309387" lon="-20.335292816">
<ele>72.7</ele>
<time>2012-07-20T18:52:29Z</time>
<speed>4.120000</speed>
<extensions>
<speed>4.1</speed>
<temp>0.00</temp>
<bpm>0</bpm>
<rpm>0.00</rpm>
</extensions>
</trkpt>
<trkpt lat="64.035018921" lon="-20.327743530">
<ele>78.2</ele>
<time>2012-07-20T18:53:59Z</time>
<speed>3.570000</speed>
<extensions>
<speed>3.6</speed>
<temp>0.00</temp>
<bpm>0</bpm>
<rpm>0.00</rpm>
</extensions>
</trkpt>
<trkpt lat="64.036231995" lon="-20.320587158">
<ele>75.4</ele>
<time>2012-07-20T18:55:24Z</time>
<speed>8.320000</speed>
<extensions>
<speed>8.3</speed>
<temp>0.00</temp>
<bpm>0</bpm>
<rpm>0.00</rpm>
</extensions>
</trkpt>
<trkpt lat="64.037429810" lon="-20.310464859">
<ele>64.6</ele>
<time>2012-07-20T18:56:24Z</time>
<speed>6.160000</speed>
<extensions>
<speed>6.2</speed>
<temp>0.00</temp>
<bpm>0</bpm>
<rpm>0.00</rpm>
</extensions>
</trkpt>
<trkpt lat="64.039794922" lon="-20.300174713">
<ele>68.0</ele>
<time>2012-07-20T18:58:14Z</time>
<speed>6.200000</speed>
<extensions>
<speed>6.2</speed>
<temp>0.00</temp>
<bpm>0</bpm>
<rpm>0.00</rpm>
</extensions>
</trkpt>
<trkpt lat="64.040222168" lon="-20.296871185">
<ele>69.2</ele>
<time>2012-07-20T18:58:44Z</time>
<speed>5.130000</speed>
<extensions>
<speed>5.1</speed>
<temp>0.00</temp>
<bpm>0</bpm>
<rpm>0.00</rpm>
</extensions>
</trkpt>
<trkpt lat="64.040718079" lon="-20.288845062">
<ele>71.4</ele>
<time>2012-07-20T19:00:19Z</time>
<speed>4.490000</speed>
<extensions>
<speed>4.5</speed>
<temp>0.00</temp>
<bpm>0</bpm>
<rpm>0.00</rpm>
</extensions>
</trkpt>
<trkpt lat="64.041831970" lon="-20.283233643">
<ele>73.8</ele>
<time>2012-07-20T19:01:29Z</time>
<speed>4.850000</speed>
<extensions>
<speed>4.8</speed>
<temp>0.00</temp>
<bpm>0</bpm>
<rpm>0.00</rpm>
</extensions>
</trkpt>
<trkpt lat="64.041893005" lon="-20.280063629">
<ele>73.5</ele>
<time>2012-07-20T19:01:59Z</time>
<speed>4.850000</speed>
<extensions>
<speed>4.8</speed>
<temp>0.00</temp>
<bpm>0</bpm>
<rpm>0.00</rpm>
</extensions>
</trkpt>
<trkpt lat="64.041709900" lon="-20.270412445">
<ele>79.5</ele>
<time>2012-07-20T19:03:54Z</time>
<speed>5.280000</speed>
<extensions>
<speed>5.3</speed>
<temp>0.00</temp>
<bpm>0</bpm>
<rpm>0.00</rpm>
</extensions>
</trkpt>
<trkpt lat="64.040969849" lon="-20.254220963">
<ele>87.4</ele>
<time>2012-07-20T19:06:49Z</time>
<speed>4.340000</speed>
<extensions>
<speed>4.3</speed>
<temp>0.00</temp>
<bpm>0</bpm>
<rpm>0.00</rpm>
</extensions>
</trkpt>
<trkpt lat="64.041099548" lon="-20.206323624">
<ele>95.4</ele>
<time>2012-07-20T19:15:54Z</time>
<speed>4.830000</speed>
<extensions>
<speed>4.8</speed>
<temp>0.00</temp>
<bpm>0</bpm>
<rpm>0.00</rpm>
</extensions>
</trkpt>
<trkpt lat="64.041488647" lon="-20.199876785">
<ele>97.9</ele>
<time>2012-07-20T19:17:04Z</time>
<speed>4.300000</speed>
<extensions>
<speed>4.3</speed>
<temp>0.00</temp>
<bpm>0</bpm>
<rpm>0.00</rpm>
</extensions>
</trkpt>
<trkpt lat="64.044525146" lon="-20.168508530">
<ele>104.0</ele>
<time>2012-07-20T19:22:44Z</time>
<speed>4.410000</speed>
<extensions>
<speed>4.4</speed>
<temp>0.00</temp>
<bpm>0</bpm>
<rpm>0.00</rpm>
</extensions>
</trkpt>
<trkpt lat="64.046623230" lon="-20.155452728">
<ele>121.7</ele>
<time>2012-07-20T19:27:49Z</time>
<speed>1.330000</speed>
<extensions>
<speed>1.3</speed>
<temp>0.00</temp>
<bpm>0</bpm>
<rpm>0.00</rpm>
</extensions>
</trkpt>
<trkpt lat="64.047630310" lon="-20.150869370">
<ele>124.7</ele>
<time>2012-07-20T19:30:54Z</time>
<speed>2.980000</speed>
<extensions>
<speed>3.0</speed>
<temp>0.00</temp>
<bpm>0</bpm>
<rpm>0.00</rpm>
</extensions>
</trkpt>
<trkpt lat="64.049858093" lon="-20.145603180">
<ele>122.7</ele>
<time>2012-07-20T19:32:19Z</time>
<speed>6.780000</speed>
<extensions>
<speed>6.8</speed>
<temp>0.00</temp>
<bpm>0</bpm>
<rpm>0.00</rpm>
</extensions>
</trkpt>
<trkpt lat="64.054840088" lon="-20.132555008">
<ele>114.0</ele>
<time>2012-07-20T19:34:39Z</time>
<speed>7.930000</speed>
<extensions>
<speed>7.9</speed>
<temp>0.00</temp>
<bpm>0</bpm>
<rpm>0.00</rpm>
</extensions>
</trkpt>
<trkpt lat="64.058753967" lon="-20.121490479">
<ele>109.8</ele>
<time>2012-07-20T19:36:29Z</time>
<speed>4.700000</speed>
<extensions>
<speed>4.7</speed>
<temp>0.00</temp>
<bpm>0</bpm>
<rpm>0.00</rpm>
</extensions>
</trkpt>
<trkpt lat="64.060066223" lon="-20.119001389">
<ele>109.5</ele>
<time>2012-07-20T19:37:09Z</time>
<speed>4.500000</speed>
<extensions>
<speed>4.5</speed>
<temp>0.00</temp>
<bpm>0</bpm>
<rpm>0.00</rpm>
</extensions>
</trkpt>
<trkpt lat="64.063377380" lon="-20.114355087">
<ele>111.0</ele>
<time>2012-07-20T19:38:44Z</time>
<speed>5.020000</speed>
<extensions>
<speed>5.0</speed>
<temp>0.00</temp>
<bpm>0</bpm>
<rpm>0.00</rpm>
</extensions>
</trkpt>
<trkpt lat="64.063919067" lon="-20.112731934">
<ele>111.0</ele>
<time>2012-07-20T19:39:04Z</time>
<speed>4.870000</speed>
<extensions>
<speed>4.9</speed>
<temp>0.00</temp>
<bpm>0</bpm>
<rpm>0.00</rpm>
</extensions>
</trkpt>
<trkpt lat="64.064018250" lon="-20.110858917">
<ele>110.9</ele>
<time>2012-07-20T19:39:24Z</time>
<speed>3.610000</speed>
<extensions>
<speed>3.6</speed>
<temp>0.00</temp>
<bpm>0</bpm>
<rpm>0.00</rpm>
</extensions>
</trkpt>
<trkpt lat="64.063621521" lon="-20.105325699">
<ele>112.2</ele>
<time>2012-07-20T19:41:09Z</time>
<speed>0.020000</speed>
<extensions>
<speed>0.0</speed>
<temp>0.00</temp>
<bpm>0</bpm>
<rpm>0.00</rpm>
</extensions>
</trkpt>
<trkpt lat="64.064102173" lon="-20.101581573">
<ele>110.7</ele>
<time>2012-07-20T19:42:39Z</time>
<speed>3.670000</speed>
<extensions>
<speed>3.7</speed>
<temp>0.00</temp>
<bpm>0</bpm>
<rpm>0.00</rpm>
</extensions>
</trkpt>
<trkpt lat="64.064178467" lon="-20.099920273">
<ele>113.8</ele>
<time>2012-07-20T19:42:59Z</time>
<speed>3.650000</speed>
<extensions>
<speed>3.7</speed>
<temp>0.00</temp>
<bpm>0</bpm>
<rpm>0.00</rpm>
</extensions>
</trkpt>
<trkpt lat="64.063781738" lon="-20.091903687">
<ele>111.4</ele>
<time>2012-07-20T19:45:09Z</time>
<speed>3.000000</speed>
<extensions>
<speed>3.0</speed>
<temp>0.00</temp>
<bpm>0</bpm>
<rpm>0.00</rpm>
</extensions>
</trkpt>
<trkpt lat="64.064414978" lon="-20.082181931">
<ele>115.1</ele>
<time>2012-07-20T19:48:24Z</time>
<speed>4.080000</speed>
<extensions>
<speed>4.1</speed>
<temp>0.00</temp>
<bpm>0</bpm>
<rpm>0.00</rpm>
</extensions>
</trkpt>
<trkpt lat="64.064384460" lon="-20.074043274">
<ele>118.0</ele>
<time>2012-07-20T19:49:54Z</time>
<speed>4.880000</speed>
<extensions>
<speed>4.9</speed>
<temp>0.00</temp>
<bpm>0</bpm>
<rpm>0.00</rpm>
</extensions>
</trkpt>
<trkpt lat="64.064537048" lon="-20.071611404">
<ele>118.5</ele>
<time>2012-07-20T19:50:19Z</time>
<speed>3.760000</speed>
<extensions>
<speed>3.8</speed>
<temp>0.00</temp>
<bpm>0</bpm>
<rpm>0.00</rpm>
</extensions>
</trkpt>
<trkpt lat="64.069206238" lon="-20.048339844">
<ele>117.9</ele>
<time>2012-07-20T19:54:49Z</time>
<speed>6.610000</speed>
<extensions>
<speed>6.6</speed>
<temp>0.00</temp>
<bpm>0</bpm>
<rpm>0.00</rpm>
</extensions>
</trkpt>
<trkpt lat="64.073921204" lon="-20.030382156">
<ele>120.8</ele>
<time>2012-07-20T19:57:49Z</time>
<speed>5.350000</speed>
<extensions>
<speed>5.4</speed>
<temp>0.00</temp>
<bpm>0</bpm>
<rpm>0.00</rpm>
</extensions>
</trkpt>
<trkpt lat="64.074752808" lon="-20.028053284">
<ele>118.1</ele>
<time>2012-07-20T19:58:14Z</time>
<speed>6.690000</speed>
<extensions>
<speed>6.7</speed>
<temp>0.00</temp>
<bpm>0</bpm>
<rpm>0.00</rpm>
</extensions>
</trkpt>
<trkpt lat="64.075675964" lon="-20.026187897">
<ele>118.1</ele>
<time>2012-07-20T19:58:34Z</time>
<speed>6.390000</speed>
<extensions>
<speed>6.4</speed>
<temp>0.00</temp>
<bpm>0</bpm>
<rpm>0.00</rpm>
</extensions>
</trkpt>
<trkpt lat="64.075927734" lon="-20.025939941">
<ele>118.0</ele>
<time>2012-07-20T19:58:39Z</time>
<speed>5.830000</speed>
<extensions>
<speed>5.8</speed>
<temp>0.00</temp>
<bpm>0</bpm>
<rpm>0.00</rpm>
</extensions>
</trkpt>
<trkpt lat="64.076324463" lon="-20.026365280">
<ele>119.0</ele>
<time>2012-07-20T19:58:49Z</time>
<speed>3.770000</speed>
<extensions>
<speed>3.8</speed>
<temp>0.00</temp>
<bpm>0</bpm>
<rpm>0.00</rpm>
</extensions>
</trkpt>
<trkpt lat="64.078979492" lon="-20.020868301">
<ele>147.8</ele>
<time>2012-07-20T20:02:39Z</time>
<speed>0.040000</speed>
<extensions>
<speed>0.0</speed>
<temp>0.00</temp>
<bpm>0</bpm>
<rpm>0.00</rpm>
</extensions>
</trkpt>
<trkpt lat="64.080772400" lon="-20.018074036">
<ele>160.1</ele>
<time>2012-07-20T20:05:29Z</time>
<speed>2.840000</speed>
<extensions>
<speed>2.8</speed>
<temp>0.00</temp>
<bpm>0</bpm>
<rpm>0.00</rpm>
</extensions>
</trkpt>
<trkpt lat="64.080810547" lon="-20.017633438">
<ele>161.1</ele>
<time>2012-07-20T20:06:34Z</time>
<speed>0.020000</speed>
<extensions>
<speed>0.0</speed>
<temp>0.00</temp>
<bpm>0</bpm>
<rpm>0.00</rpm>
</extensions>
</trkpt>
<trkpt lat="64.080947876" lon="-20.017782211">
<ele>158.6</ele>
<time>2012-07-20T20:15:49Z</time>
<speed>2.710000</speed>
<extensions>
<speed>2.7</speed>
<temp>0.00</temp>
<bpm>0</bpm>
<rpm>0.00</rpm>
</extensions>
</trkpt>
<trkpt lat="64.081321716" lon="-20.017393112">
<ele>157.6</ele>
<time>2012-07-20T20:16:04Z</time>
<speed>3.440000</speed>
<extensions>
<speed>3.4</speed>
<temp>0.00</temp>
<bpm>0</bpm>
<rpm>0.00</rpm>
</extensions>
</trkpt>
<trkpt lat="64.083534241" lon="-20.012865067">
<ele>143.1</ele>
<time>2012-07-20T20:17:09Z</time>
<speed>8.890000</speed>
<extensions>
<speed>8.9</speed>
<temp>0.00</temp>
<bpm>0</bpm>
<rpm>0.00</rpm>
</extensions>
</trkpt>
<trkpt lat="64.084472656" lon="-20.010471344">
<ele>128.2</ele>
<time>2012-07-20T20:17:29Z</time>
<speed>8.650000</speed>
<extensions>
<speed>8.6</speed>
<temp>0.00</temp>
<bpm>0</bpm>
<rpm>0.00</rpm>
</extensions>
</trkpt>
<trkpt lat="64.085281372" lon="-20.009315491">
<ele>120.3</ele>
<time>2012-07-20T20:17:44Z</time>
<speed>5.520000</speed>
<extensions>
<speed>5.5</speed>
<temp>0.00</temp>
<bpm>0</bpm>
<rpm>0.00</rpm>
</extensions>
</trkpt>
<trkpt lat="64.085273743" lon="-20.008108139">
<ele>116.6</ele>
<time>2012-07-20T20:17:54Z</time>
<speed>3.710000</speed>
<extensions>
<speed>3.7</speed>
<temp>0.00</temp>
<bpm>0</bpm>
<rpm>0.00</rpm>
</extensions>
</trkpt>
<trkpt lat="64.087280273" lon="-20.005794525">
<ele>117.1</ele>
<time>2012-07-20T20:18:54Z</time>
<speed>4.570000</speed>
<extensions>
<speed>4.6</speed>
<temp>0.00</temp>
<bpm>0</bpm>
<rpm>0.00</rpm>
</extensions>
</trkpt>
<trkpt lat="64.088562012" lon="-20.003671646">
<ele>116.4</ele>
<time>2012-07-20T20:19:29Z</time>
<speed>5.020000</speed>
<extensions>
<speed>5.0</speed>
<temp>0.00</temp>
<bpm>0</bpm>
<rpm>0.00</rpm>
</extensions>
</trkpt>
<trkpt lat="64.089790344" lon="-20.000980377">
<ele>117.2</ele>
<time>2012-07-20T20:20:04Z</time>
<speed>5.450000</speed>
<extensions>
<speed>5.5</speed>
<temp>0.00</temp>
<bpm>0</bpm>
<rpm>0.00</rpm>
</extensions>
</trkpt>
<trkpt lat="64.092788696" lon="-19.992490768">
<ele>118.4</ele>
<time>2012-07-20T20:21:39Z</time>
<speed>5.490000</speed>
<extensions>
<speed>5.5</speed>
<temp>0.00</temp>
<bpm>0</bpm>
<rpm>0.00</rpm>
</extensions>
</trkpt>
<trkpt lat="64.096343994" lon="-19.985609055">
<ele>124.5</ele>
<time>2012-07-20T20:23:54Z</time>
<speed>4.770000</speed>
<extensions>
<speed>4.8</speed>
<temp>0.00</temp>
<bpm>0</bpm>
<rpm>0.00</rpm>
</extensions>
</trkpt>
<trkpt lat="64.099067688" lon="-19.976325989">
<ele>124.6</ele>
<time>2012-07-20T20:25:29Z</time>
<speed>5.900000</speed>
<extensions>
<speed>5.9</speed>
<temp>0.00</temp>
<bpm>0</bpm>
<rpm>0.00</rpm>
</extensions>
</trkpt>
<trkpt lat="64.099563599" lon="-19.974058151">
<ele>124.2</ele>
<time>2012-07-20T20:25:49Z</time>
<speed>6.570000</speed>
<extensions>
<speed>6.6</speed>
<temp>0.00</temp>
<bpm>0</bpm>
<rpm>0.00</rpm>
</extensions>
</trkpt>
<trkpt lat="64.099929810" lon="-19.970615387">
<ele>121.3</ele>
<time>2012-07-20T20:26:19Z</time>
<speed>5.530000</speed>
<extensions>
<speed>5.5</speed>
<temp>0.00</temp>
<bpm>0</bpm>
<rpm>0.00</rpm>
</extensions>
</trkpt>
<trkpt lat="64.100090027" lon="-19.962617874">
<ele>132.3</ele>
<time>2012-07-20T20:27:59Z</time>
<speed>3.360000</speed>
<extensions>
<speed>3.4</speed>
<temp>0.00</temp>
<bpm>0</bpm>
<rpm>0.00</rpm>
</extensions>
</trkpt>
<trkpt lat="64.100669861" lon="-19.958580017">
<ele>133.7</ele>
<time>2012-07-20T20:28:49Z</time>
<speed>4.660000</speed>
<extensions>
<speed>4.7</speed>
<temp>0.00</temp>
<bpm>0</bpm>
<rpm>0.00</rpm>
</extensions>
</trkpt>
<trkpt lat="64.101493835" lon="-19.955598831">
<ele>134.8</ele>
<time>2012-07-20T20:29:24Z</time>
<speed>4.510000</speed>
<extensions>
<speed>4.5</speed>
<temp>0.00</temp>
<bpm>0</bpm>
<rpm>0.00</rpm>
</extensions>
</trkpt>
<trkpt lat="64.103233337" lon="-19.951339722">
<ele>136.3</ele>
<time>2012-07-20T20:30:24Z</time>
<speed>2.290000</speed>
<extensions>
<speed>2.3</speed>
<temp>0.00</temp>
<bpm>0</bpm>
<rpm>0.00</rpm>
</extensions>
</trkpt>
<trkpt lat="64.104881287" lon="-19.953367233">
<ele>138.5</ele>
<time>2012-07-20T20:31:34Z</time>
<speed>2.890000</speed>
<extensions>
<speed>2.9</speed>
<temp>0.00</temp>
<bpm>0</bpm>
<rpm>0.00</rpm>
</extensions>
</trkpt>
<trkpt lat="64.104980469" lon="-19.954500198">
<ele>138.1</ele>
<time>2012-07-20T20:31:59Z</time>
<speed>1.420000</speed>
<extensions>
<speed>1.4</speed>
<temp>0.00</temp>
<bpm>0</bpm>
<rpm>0.00</rpm>
</extensions>
</trkpt>
<trkpt lat="64.104904175" lon="-19.953910828">
<ele>138.2</ele>
<time>2012-07-20T20:32:09Z</time>
<speed>3.460000</speed>
<extensions>
<speed>3.5</speed>
<temp>0.00</temp>
<bpm>0</bpm>
<rpm>0.00</rpm>
</extensions>
</trkpt>
<trkpt lat="64.105079651" lon="-19.953323364">
<ele>138.6</ele>
<time>2012-07-20T20:37:14Z</time>
<speed>0.300000</speed>
<extensions>
<speed>0.3</speed>
<temp>0.00</temp>
<bpm>0</bpm>
<rpm>0.00</rpm>
</extensions>
</trkpt>
<trkpt lat="64.104621887" lon="-19.954591751">
<ele>139.1</ele>
<time>2012-07-20T20:37:54Z</time>
<speed>3.550000</speed>
<extensions>
<speed>3.5</speed>
<temp>0.00</temp>
<bpm>0</bpm>
<rpm>0.00</rpm>
</extensions>
</trkpt>
<trkpt lat="64.103950500" lon="-19.955451965">
<ele>139.7</ele>
<time>2012-07-20T20:38:19Z</time>
<speed>3.720000</speed>
<extensions>
<speed>3.7</speed>
<temp>0.00</temp>
<bpm>0</bpm>
<rpm>0.00</rpm>
</extensions>
</trkpt>
<trkpt lat="64.103370667" lon="-19.956672668">
<ele>139.4</ele>
<time>2012-07-20T20:38:44Z</time>
<speed>1.880000</speed>
<extensions>
<speed>1.9</speed>
<temp>0.00</temp>
<bpm>0</bpm>
<rpm>0.00</rpm>
</extensions>
</trkpt>
<trkpt lat="64.103569031" lon="-19.956628799">
<ele>139.2</ele>
<time>2012-07-20T20:39:09Z</time>
<speed>0.030000</speed>
<extensions>
<speed>0.0</speed>
<temp>0.00</temp>
<bpm>0</bpm>
<rpm>0.00</rpm>
</extensions>
</trkpt>
<trkpt lat="64.102287292" lon="-19.958290100">
<ele>135.8</ele>
<time>2012-07-20T20:40:44Z</time>
<speed>1.590000</speed>
<extensions>
<speed>1.6</speed>
<temp>0.00</temp>
<bpm>0</bpm>
<rpm>0.00</rpm>
</extensions>
</trkpt>
<trkpt lat="64.103340149" lon="-19.956747055">
<ele>139.3</ele>
<time>2012-07-20T20:41:24Z</time>
<speed>3.550000</speed>
<extensions>
<speed>3.5</speed>
<temp>0.00</temp>
<bpm>0</bpm>
<rpm>0.00</rpm>
</extensions>
</trkpt>
<trkpt lat="64.103645325" lon="-19.956729889">
<ele>138.6</ele>
<time>2012-07-20T20:41:34Z</time>
<speed>1.740000</speed>
<extensions>
<speed>1.7</speed>
<temp>0.00</temp>
<bpm>0</bpm>
<rpm>0.00</rpm>
</extensions>
</trkpt>
<trkpt lat="64.103591919" lon="-19.956951141">
<ele>138.5</ele>
<time>2012-07-20T20:46:39Z</time>
<extensions>
<speed>0.0</speed>
<temp>0.00</temp>
<bpm>0</bpm>
<rpm>0.00</rpm>
</extensions>
</trkpt>
</trkseg>
</trk>
</gpx>